Station: Victor Harbor  

  Atmospheric Gas Attenuation - ITU Rec 676-11   ----------------- dB/100km -----------------
Date Time Temp RH % AH g/m3 Dew Point Wind Direction Speed kph Gust kph Barometer mB Rainfall Since 9am 24GHz 47GHz 76GHz 122GHz 134GHz 241GHz
08/05 09:00 14.3 91 11.18 12.8 7 1013.1 0.4 25.1 30.1 50.3 132.5 133.2 460.2
07/05 09:00 14 66 7.96 7.7 19 1013.1 1 18.2 24.8 37.2 97.4 89.8 308.4
06/05 09:00 15.6 91 12.1 14.2 9 1013.1 0.4 27.0 31.3 53.5 141.0 144.1 498.5
05/05 09:00 15 83 10.64 12.1 7 1013.1 4 23.9 28.9 47.6 125.2 124.4 429.5
04/05 09:00 15.5 84 11.1 12.8 15 1013.1 6 24.9 29.5 49.2 129.6 130.0 449.2
03/05 09:00 15 83 10.64 12.1 19 1013.1 10 23.9 28.9 47.6 125.2 124.4 429.5
02/05 09:00 23 62 12.74 15.3 19 1013.1 0.2 27.9 29.8 51.3 135.1 139.3 482.7
01/05 09:00 23.4 49 10.3 12.1 11 1013.1 0 22.7 25.8 41.5 109.1 107.4 371.2
30/04 09:00 23.5 50 10.57 12.7 13 1013.1 0 23.3 26.2 42.5 111.7 110.6 382.4
29/04 09:00 16.8 80 11.44 13.4 4 1013.1 0 25.5 29.7 49.8 131.3 132.5 458.2
28/04 09:00 16 88 11.99 14.1 4 1013.1 0 26.7 30.9 52.7 139.0 141.8 490.3
27/04 09:00 14 86 10.37 11.8 4 1013.1 0 23.4 28.8 47.0 123.7 122.2 421.8
26/04 09:00 17.8 86 13.05 15.4 11 1013.1 4 28.9 32.1 56.2 148.1 153.6 531.8
25/04 09:00 25 49 11.28 13.6 15 1013.1 0 24.7 26.8 44.3 116.7 117.2 405.8
24/04 09:00 16.1 80 10.97 12.7 9 1013.1 0 24.5 29.1 48.3 127.1 127.2 439.4
23/04 09:00 15.9 90 12.19 14.3 9 1013.1 0 27.2 31.3 53.7 141.5 144.8 501.1
22/04 09:00 24.5 49 10.97 13.3 7 1013.1 0 24.0 26.5 43.4 114.3 114.1 394.9
21/04 09:00 17.3 74 10.9 12.6 6 1013.1 0 24.3 28.6 47.3 124.4 124.2 429.3
19/04 09:00 19.9 76 13.06 15.5 13 1013.1 0.6 28.8 31.4 54.7 144.2 149.5 518.0
17/04 09:00 16.3 74 10.27 11.7 13 1013.1 0.4 23.0 27.9 45.2 119.0 117.2 404.7
16/04 09:00 17.5 75 11.18 13 15 1013.1 0 24.9 29.0 48.3 127.2 127.7 441.5
15/04 09:00 16 84 11.44 13.3 6 1013.1 0 25.5 30.0 50.4 132.6 133.9 463.0
14/04 09:00 17.1 73 10.63 12.2 6 1013.1 0.2 23.8 28.2 46.3 121.7 120.9 417.5
13/04 09:00 14 97 11.7 13.5 0 1013.1 3 26.2 31.1 52.8 139.2 141.3 488.4
12/04 09:00 16 62 8.45 8.8 17 1013.1 2 19.2 25.0 38.1 100.0 93.7 322.4
11/04 09:00 15.4 63 8.28 8.5 19 1013.1 2 18.8 24.9 37.7 99.0 92.3 317.3
10/04 09:00 16.2 67 9.24 10.1 19 1013.1 1 20.8 26.2 41.1 108.0 103.7 357.3
09/04 09:00 18.3 86 13.45 15.9 13 1013.1 10 29.7 32.7 57.6 151.9 158.4 548.5
08/04 09:00 14 77 9.29 10.1 0 1013.1 0 21.1 27.0 42.5 111.6 107.3 369.8
07/04 09:00 17.5 67 9.99 11.4 15 1013.1 0 22.4 27.0 43.4 114.2 111.7 385.6
06/04 09:00 18.2 94 14.61 17.2 0 1013.1 7 32.2 34.8 62.9 166.1 175.8 609.3
05/04 09:00 16.8 67 9.58 10.6 0 1013.1 21.5 26.6 42.2 110.8 107.3 370.1
04/04 09:00 13.1 75 8.56 8.9 7 1013.1 0 19.5 26.0 40.0 104.9 98.7 339.6
03/04 09:00 16.8 85 12.15 14.2 19 1013.1 1 27.0 30.9 52.9 139.4 142.6 493.2
02/04 09:00 12.8 93 10.42 11.7 0 1013.1 0 23.6 29.3 48.0 126.2 124.9 430.9
01/04 09:00 16.9 87 12.51 14.8 4 1013.1 2 27.8 31.5 54.4 143.5 147.5 510.6
31/03 09:00 14.7 80 10.07 11.3 7 1013.1 0 22.7 28.0 45.3 119.2 116.9 403.5
30/03 09:00 21 63 11.54 13.7 7 1013.1 0 25.5 28.5 47.6 125.5 126.8 438.8
29/03 09:00 15.5 83 10.97 12.6 4 1013.1 0 24.6 29.3 48.7 128.1 128.2 442.8
28/03 09:00 16.6 85 12.01 14.1 15 1013.1 1 26.7 30.7 52.4 138.2 140.9 487.5
27/03 09:00 15.5 52 6.87 5.9 19 1013.1 0.2 15.8 22.7 32.4 84.7 74.6 255.5
26/03 09:00 15.5 85 11.24 13 17 1013.1 0.4 25.2 29.8 49.8 131.2 132.0 456.1
25/03 09:00 19.4 91 15.18 17.9 7 1013.1 0.2 33.3 35.4 64.5 170.4 181.6 629.6
24/03 09:00 22 66 12.81 15.5 17 1013.1 0 28.1 30.2 52.2 137.6 142.1 492.2
23/03 09:00 13.6 91 10.71 12.1 2 1013.1 0 24.1 29.5 48.7 128.3 127.7 440.8
22/03 09:00 14.2 94 11.48 13.3 0 1013.1 0 25.8 30.7 51.7 136.2 137.7 475.9
21/03 09:00 17.1 79 11.5 13.4 9 1013.1 0 25.6 29.7 49.9 131.4 132.8 459.3
20/03 09:00 16.9 91 13.09 15.4 4 1013.1 0 29.0 32.5 57.0 150.3 156.0 540.1
19/03 09:00 17.5 90 13.42 15.8 9 1013.1 0 29.7 32.9 58.0 153.1 159.6 552.8
18/03 09:00 18.2 97 15.08 17.7 4 1013.1 0.4 33.2 35.7 65.1 171.9 183.0 634.3
17/03 09:00 17.2 91 13.33 15.7 11 1013.1 6 29.5 32.9 57.8 152.6 158.9 550.3
16/03 09:00 17.1 98 14.26 16.8 0 1013.1 2 31.5 34.6 62.2 164.2 173.1 599.6
15/03 09:00 14.9 92 11.73 13.6 4 1013.1 0 26.2 30.8 52.4 137.9 140.1 484.2
14/03 09:00 14.1 86 10.44 11.9 0 1013.1 0 23.5 28.9 47.3 124.3 123.0 424.7
13/03 09:00 15.5 67 8.86 9.5 13 1013.1 0 20.1 25.8 40.0 104.9 99.6 343.0
12/03 09:00 16.5 63 8.85 9.4 11 1013.1 0.8 20.0 25.5 39.4 103.5 98.2 338.3
11/03 09:00 18.9 89 14.42 17.1 17 1013.1 0 31.7 34.2 61.5 162.3 171.3 593.9
10/03 09:00 16 84 11.44 13.3 4 1013.1 0 25.5 30.0 50.4 132.6 133.9 463.0
09/03 09:00 16.9 80 11.51 13.5 4 1013.1 0 25.6 29.8 50.1 131.9 133.3 461.0
08/03 09:00 16.8 85 12.15 14.2 17 1013.1 0 27.0 30.9 52.9 139.4 142.6 493.2
07/03 09:00 17.8 87 13.2 15.6 19 1013.1 0 29.2 32.4 56.8 149.9 155.8 539.4
06/03 09:00 15.2 94 12.2 14.3 0 1013.1 0 27.2 31.6 54.2 143.0 146.3 506.2
05/03 09:00 15.7 93 12.44 14.5 0 1013.1 0 27.7 31.8 55.0 144.9 148.9 515.1
04/03 09:00 16.5 79 11.09 12.9 11 1013.1 0 24.8 29.2 48.5 127.8 128.2 442.9
03/03 09:00 16.8 78 11.15 13 11 1013.1 0.2 24.9 29.2 48.6 128.0 128.5 444.1
02/03 09:00 17.9 90 13.74 16.2 15 1013.1 8 30.4 33.3 59.2 156.1 163.5 566.3
01/03 09:00 23.6 94 19.99 22.6 2 1013.1 13 43.2 42.7 83.5 220.9 244.8 850.2
27/02 09:00 17.5 96 14.31 16.8 0 1013.1 0 31.6 34.5 62.1 163.9 172.9 599.1
26/02 09:00 16.8 72 10.29 11.7 11 1013.1 0 23.0 27.7 45.0 118.5 116.8 403.1
25/02 09:00 17.5 70 10.44 12 20 1013.1 0 23.3 27.8 45.2 119.0 117.7 406.5
24/02 09:00 18.4 94 14.78 17.4 11 1013.1 0 32.6 35.0 63.5 167.7 177.9 616.7
23/02 09:00 17 87 12.59 14.9 13 1013.1 2 28.0 31.6 54.7 144.2 148.5 514.0
22/02 09:00 23.8 87 18.71 21.5 4 1013.1 0.2 40.5 40.1 77.0 203.7 223.9 777.4
21/02 09:00 18.9 91 14.74 17.4 9 1013.1 0 32.4 34.8 62.9 166.2 176.1 610.5
20/02 09:00 15.6 98 13.03 15.3 6 1013.1 0 29.0 32.9 57.7 152.2 157.8 546.3
19/02 09:00 18 92 14.13 16.7 7 1013.1 0 31.2 34.0 60.9 160.6 169.1 585.8
18/02 09:00 17.4 79 11.71 13.7 4 1013.1 13 26.0 29.9 50.6 133.3 135.2 467.8
17/02 09:00 22.1 89 17.37 20.2 22 1013.1 2 37.8 38.3 72.3 191.2 208.0 721.9
16/02 09:00 30.5 61 19.01 22.3 17 1013.1 0 40.4 37.5 71.9 190.1 209.1 726.8
15/02 09:00 17 95 13.75 16.2 4 1013.1 0 30.4 33.7 59.9 158.1 165.6 573.6
14/02 09:00 17.4 86 12.74 15 13 1013.1 0 28.2 31.7 55.1 145.2 149.9 518.9
13/02 09:00 16.3 81 11.24 13.1 17 1013.1 0 25.1 29.5 49.3 129.8 130.6 451.4
12/02 09:00 16.7 75 10.66 12.3 17 1013.1 2 23.8 28.4 46.6 122.7 121.9 421.1
11/02 09:00 25.5 83 19.65 22.4 4 1013.1 0 42.3 41.0 79.8 211.0 233.3 810.5
10/02 09:00 18.1 92 14.21 16.8 7 1013.1 0 31.3 34.1 61.1 161.4 170.0 589.2
09/02 09:00 18 89 13.67 16.1 11 1013.1 0 30.2 33.2 58.8 155.1 162.2 562.0
08/02 09:00 18.5 90 14.24 16.8 11 1013.1 0 31.4 34.0 61.0 160.9 169.6 587.6
07/02 09:00 19.2 86 14.18 16.9 9 1013.1 0 31.2 33.6 60.1 158.7 167.1 579.2
06/02 09:00 17.1 80 11.64 13.7 11 1013.1 0 25.9 29.9 50.5 133.0 134.8 466.2
05/02 09:00 18.7 83 13.29 15.8 13 1013.1 0 29.3 32.2 56.6 149.2 155.2 537.6
04/02 09:00 16.8 59 8.43 8.8 9 1013.1 0 19.1 24.8 37.7 98.8 92.5 318.3
03/02 09:00 18 84 12.9 15.3 7 1013.1 0 28.5 31.8 55.3 146.0 151.0 522.8
02/02 09:00 15.7 65 8.7 9.1 19 1013.1 0 19.7 25.5 39.2 103.0 97.3 334.9
01/02 09:00 17.7 71 10.71 12.5 13 1013.1 0.4 23.9 28.2 46.2 121.7 121.0 418.1
31/01 09:00 19.4 92 15.35 18.1 19 1013.1 0 33.7 35.7 65.3 172.5 184.1 638.5
30/01 09:00 21.4 83 15.56 18.4 7 1013.1 0 34.0 35.2 64.6 170.6 182.4 632.8
29/01 09:00 19.4 85 14.18 16.9 15 1013.1 0 31.2 33.5 60.0 158.3 166.7 577.7
28/01 09:00 19.5 89 14.94 17.7 19 1013.1 0 32.8 34.9 63.3 167.3 177.7 616.2
27/01 09:00 41.2 25 13.56 17.8 19 1013.1 0 28.3 25.4 43.6 115.1 119.6 415.7
26/01 09:00 20.7 83 14.94 17.8 9 1013.1 0 32.7 34.4 62.4 164.7 174.9 606.5

Last Refresh: 08-May-2026 12:10:13

Bureau of Meteorology